.
WxDataArchive / Data Records for 2007-05-21
2007-05-20 May 2007 2007-05-22

Data Records for Monday, 21 May 2007

Time	Temp	Chill	HIndex	Humid	Dewpt	 Wind 	HiWind	WindDir	Rain 	Barom 
-----	----	-----	------	-----	-----	------	------	-------	-----	----- 
00:00	53.5	53.5	53.5	77	46.5	2	4	112	0.00	30.060 
00:05	53.3	53.3	53.3	78	46.6	2	6	90	0.00	30.063 
00:10	53.2	53.2	53.2	78	46.5	2	5	112	0.00	30.066 
00:15	53.2	53.2	53.2	78	46.5	2	5	90	0.00	30.067 
00:20	53.2	53.2	53.2	78	46.5	3	6	90	0.00	30.066 
00:25	53.2	53.2	53.2	78	46.5	2	5	90	0.00	30.066 
00:30	53.2	53.2	53.2	78	46.5	2	5	90	0.00	30.066 
00:35	53.1	53.1	53.1	78	46.4	2	5	112	0.00	30.066 
00:40	52.9	52.9	52.9	78	46.2	2	4	90	0.00	30.067 
00:45	52.8	52.8	52.8	78	46.1	2	5	90	0.00	30.067 
00:50	52.6	52.6	52.6	78	45.9	3	6	90	0.00	30.068 
00:55	52.5	52.5	52.5	78	45.8	3	6	90	0.00	30.070 
01:00	52.5	52.5	52.5	78	45.8	3	6	90	0.00	30.070 
01:05	52.5	52.5	52.5	78	45.8	2	5	90	0.00	30.070 
01:10	52.3	52.3	52.3	79	46.0	3	6	90	0.00	30.069 
01:15	52.2	52.2	52.2	79	45.9	3	7	90	0.00	30.072 
01:20	52.0	52.0	52.0	79	45.7	3	7	112	0.00	30.073 
01:25	51.9	51.9	51.9	79	45.6	3	7	90	0.00	30.072 
01:30	51.7	51.7	51.7	79	45.4	2	5	90	0.00	30.070 
01:35	51.6	51.6	51.6	79	45.3	2	5	90	0.00	30.071 
01:40	51.4	51.4	51.4	79	45.1	2	6	112	0.00	30.071 
01:45	51.3	51.3	51.3	79	45.0	3	9	90	0.00	30.071 
01:50	51.3	51.3	51.3	79	45.0	3	6	90	0.00	30.070 
01:55	51.1	51.1	51.1	79	44.8	3	9	90	0.00	30.071 
02:00	51.1	51.1	51.1	79	44.8	2	4	90	0.00	30.070 
02:05	51.0	51.0	51.0	80	45.0	1	3	90	0.00	30.070 
02:10	50.8	50.8	50.8	80	44.9	2	4	112	0.00	30.071 
02:15	50.7	50.7	50.7	80	44.8	2	4	90	0.00	30.074 
02:20	50.7	50.7	50.7	80	44.8	2	4	90	0.00	30.080 
02:25	50.7	50.7	50.7	80	44.8	1	4	112	0.00	30.080 
02:30	50.5	50.5	50.5	80	44.6	2	6	112	0.00	30.079 
02:35	50.5	50.5	50.5	80	44.6	2	5	112	0.00	30.081 
02:40	50.4	50.4	50.4	80	44.5	2	4	68	0.00	30.086 
02:45	50.4	50.4	50.4	80	44.5	2	4	90	0.00	30.085 
02:50	50.4	50.4	50.4	80	44.5	2	4	90	0.00	30.086 
02:55	50.4	50.4	50.4	80	44.5	2	4	90	0.00	30.084 
03:00	50.2	50.2	50.2	80	44.3	1	4	90	0.00	30.087 
03:05	50.2	50.2	50.2	80	44.3	1	3	112	0.00	30.086 
03:10	50.1	50.1	50.1	80	44.2	2	5	112	0.00	30.086 
03:15	50.1	50.1	50.1	80	44.2	1	3	90	0.00	30.086 
03:20	50.1	50.1	50.1	80	44.2	1	3	90	0.00	30.087 
03:25	50.2	50.2	50.2	80	44.3	1	3	90	0.00	30.087 
03:30	50.2	50.2	50.2	80	44.3	2	4	90	0.00	30.087 
03:35	50.4	50.4	50.4	79	44.1	2	6	90	0.00	30.088 
03:40	50.4	50.4	50.4	80	44.5	2	6	68	0.00	30.087 
03:45	50.4	50.4	50.4	80	44.5	1	3	112	0.00	30.088 
03:50	50.4	50.4	50.4	80	44.5	1	4	90	0.00	30.090 
03:55	50.5	50.5	50.5	80	44.6	1	3	90	0.00	30.088 
04:00	50.5	50.5	50.5	80	44.6	1	3	90	0.00	30.089 
04:05	50.7	50.7	50.7	80	44.8	1	5	90	0.00	30.091 
04:10	50.7	50.7	50.7	80	44.8	1	3	90	0.00	30.090 
04:15	50.7	50.7	50.7	79	44.4	1	4	90	0.00	30.091 
04:20	50.7	50.7	50.7	79	44.4	1	2	90	0.00	30.090 
04:25	50.7	50.7	50.7	78	44.1	2	3	90	0.00	30.090 
04:30	50.8	50.8	50.8	77	43.9	2	6	90	0.00	30.087 
04:35	50.8	50.8	50.8	77	43.9	2	6	90	0.00	30.090 
04:40	50.7	50.7	50.7	76	43.4	2	4	112	0.00	30.092 
04:45	50.7	50.7	50.7	76	43.4	2	6	90	0.00	30.093 
04:50	50.5	50.5	50.5	76	43.2	2	4	90	0.00	30.096 
04:55	50.5	50.5	50.5	76	43.2	2	4	112	0.00	30.095 
05:00	50.5	50.5	50.5	76	43.2	2	6	90	0.00	30.101 
05:05	50.5	50.5	50.5	76	43.2	2	5	90	0.00	30.102 
05:10	50.4	50.4	50.4	77	43.5	2	5	112	0.00	30.107 
05:15	50.4	50.4	50.4	77	43.5	1	3	112	0.00	30.109 
05:20	50.2	50.2	50.2	77	43.3	2	5	90	0.00	30.109 
05:25	50.2	50.2	50.2	77	43.3	2	3	90	0.00	30.112 
05:30	50.2	50.2	50.2	77	43.3	2	5	90	0.00	30.109 
05:35	50.2	50.2	50.2	77	43.3	2	3	90	0.00	30.107 
05:40	50.2	50.2	50.2	77	43.3	2	5	90	0.00	30.107 
05:45	50.2	50.2	50.2	78	43.6	2	5	68	0.00	30.110 
05:50	50.4	50.4	50.4	78	43.8	1	4	90	0.00	30.116 
05:55	50.5	50.5	50.5	77	43.6	1	3	90	0.00	30.116 
06:00	50.7	50.7	50.7	77	43.8	2	5	90	0.00	30.119 
06:05	50.8	50.8	50.8	76	43.5	2	6	90	0.00	30.122 
06:10	51.0	51.0	51.0	75	43.4	3	7	90	0.00	30.124 
06:15	51.0	51.0	51.0	74	43.0	3	6	90	0.00	30.125 
06:20	51.0	51.0	51.0	75	43.4	1	4	90	0.00	30.127 
06:25	51.1	51.1	51.1	74	43.1	2	6	90	0.00	30.126 
06:30	51.1	51.1	51.1	73	42.7	1	4	90	0.00	30.126 
06:35	51.1	51.1	51.1	73	42.7	2	4	68	0.00	30.124 
06:40	51.3	51.3	51.3	72	42.6	2	4	112	0.00	30.126 
06:45	51.3	51.3	51.3	72	42.6	2	6	90	0.00	30.126 
06:50	51.3	51.3	51.3	72	42.6	3	9	90	0.00	30.128 
06:55	51.1	51.1	51.1	73	42.7	3	6	90	0.00	30.128 
07:00	51.1	51.1	51.1	74	43.1	1	3	90	0.00	30.136 
07:05	51.3	51.3	51.3	74	43.3	1	4	90	0.00	30.138 
07:10	51.3	51.3	51.3	73	42.9	2	5	112	0.00	30.138 
07:15	51.1	51.1	51.1	73	42.7	3	9	90	0.00	30.138 
07:20	51.1	51.1	51.1	73	42.7	2	4	90	0.00	30.137 
07:25	51.1	51.1	51.1	73	42.7	3	6	90	0.00	30.136 
07:30	51.3	51.3	51.3	73	42.9	3	7	90	0.00	30.136 
07:35	51.3	51.3	51.3	73	42.9	2	4	90	0.00	30.137 
07:40	51.4	51.4	51.4	73	43.0	3	6	90	0.00	30.134 
07:45	51.3	51.3	51.3	73	42.9	3	5	90	0.00	30.136 
07:50	51.4	51.4	51.4	73	43.0	2	6	90	0.00	30.138 
07:55	51.4	51.4	51.4	72	42.7	2	5	112	0.00	30.139 
08:00	51.4	51.4	51.4	72	42.7	3	6	90	0.00	30.139 
08:05	51.6	51.6	51.6	71	42.5	3	6	90	0.00	30.141 
08:10	51.6	51.6	51.6	71	42.5	3	6	90	0.00	30.143 
08:15	51.6	51.6	51.6	71	42.5	3	5	112	0.00	30.143 
08:20	51.7	51.7	51.7	71	42.6	2	7	68	0.00	30.146 
08:25	51.9	51.9	51.9	71	42.8	1	4	68	0.00	30.148 
08:30	52.0	52.0	52.0	71	42.9	2	4	90	0.00	30.146 
08:35	52.2	52.2	52.2	71	43.1	2	5	90	0.00	30.145 
08:40	52.2	52.2	52.2	71	43.1	2	5	90	0.00	30.142 
08:45	52.2	52.2	52.2	71	43.1	1	4	90	0.00	30.144 
08:50	52.3	52.3	52.3	71	43.2	2	6	112	0.00	30.142 
08:55	52.3	52.3	52.3	70	42.8	2	4	112	0.00	30.141 
09:00	52.3	52.3	52.3	69	42.4	3	5	90	0.00	30.140 
09:05	52.3	52.3	52.3	70	42.8	2	4	90	0.00	30.141 
09:10	52.3	52.3	52.3	70	42.8	2	4	90	0.00	30.145 
09:15	52.3	52.3	52.3	71	43.2	2	4	112	0.00	30.144 
09:20	52.5	52.5	52.5	70	43.0	3	6	90	0.00	30.144 
09:25	52.5	52.5	52.5	71	43.4	2	4	112	0.00	30.146 
09:30	52.5	52.5	52.5	71	43.4	1	3	90	0.00	30.149 
09:35	52.6	52.6	52.6	72	43.8	2	5	90	0.00	30.148 
09:40	52.8	52.8	52.8	71	43.7	2	5	90	0.00	30.145 
09:45	52.8	52.8	52.8	71	43.7	2	4	90	0.00	30.144 
09:50	53.1	53.1	53.1	71	43.9	1	4	112	0.00	30.143 
09:55	53.3	53.3	53.3	70	43.8	2	4	112	0.00	30.144 
10:00	53.5	53.5	53.5	70	44.0	2	4	112	0.00	30.143 
10:05	53.8	53.8	53.8	71	44.6	2	5	112	0.00	30.145 
10:10	53.9	53.9	53.9	70	44.3	3	6	90	0.00	30.144 
10:15	54.1	54.1	54.1	70	44.5	3	6	112	0.00	30.143 
10:20	54.4	54.4	54.4	71	45.2	3	7	90	0.00	30.143 
10:25	54.8	54.8	54.8	70	45.2	1	3	112	0.00	30.143 
10:30	55.3	55.3	55.3	68	44.9	3	6	112	0.00	30.140 
10:35	55.6	55.6	55.6	69	45.6	2	5	90	0.00	30.140 
10:40	55.7	55.7	55.7	69	45.7	3	6	90	0.00	30.140 
10:45	55.9	55.9	55.9	69	45.9	3	6	90	0.00	30.140 
10:50	56.3	56.3	56.3	69	46.3	2	6	112	0.00	30.137 
10:55	56.6	56.6	56.6	68	46.2	3	6	90	0.00	30.135 
11:00	57.0	57.0	57.0	67	46.2	3	7	90	0.00	30.135 
11:05	57.5	57.5	57.5	67	46.6	2	6	90	0.00	30.137 
11:10	58.6	58.6	58.6	64	46.5	2	6	112	0.00	30.136 
11:15	59.2	59.2	59.2	66	47.8	3	7	90	0.00	30.137 
11:20	59.5	59.5	59.5	65	47.7	3	7	90	0.00	30.133 
11:25	60.1	60.1	60.1	64	47.9	3	7	90	0.00	30.132 
11:30	60.5	60.5	60.5	63	47.8	2	7	90	0.00	30.132 
11:35	61.3	61.3	61.3	64	49.0	2	6	112	0.00	30.128 
11:40	61.8	61.8	61.8	62	48.6	2	6	112	0.00	30.124 
11:45	62.1	62.1	62.1	62	48.9	3	9	112	0.00	30.125 
11:50	62.6	62.6	62.6	62	49.4	2	6	112	0.00	30.124 
11:55	63.1	63.1	63.1	61	49.4	2	5	90	0.00	30.124 
12:00	63.1	63.1	63.1	62	49.9	2	6	112	0.00	30.122 
12:05	63.7	63.7	63.7	62	50.4	2	4	90	0.00	30.120 
12:10	64.2	64.2	64.2	61	50.5	2	5	90	0.00	30.116 
12:15	64.0	64.0	64.0	60	49.8	3	7	112	0.00	30.115 
12:20	64.2	64.2	64.2	60	50.0	3	5	112	0.00	30.112 
12:25	65.0	65.0	65.0	60	50.8	2	6	90	0.00	30.109 
12:30	65.3	65.3	65.3	57	49.7	2	4	135	0.00	30.109 
12:35	65.5	65.5	65.5	60	51.2	3	10	90	0.00	30.107 
12:40	65.8	65.8	65.8	56	49.7	2	7	90	0.00	30.106 
12:45	66.3	66.3	66.3	58	51.1	2	6	90	0.00	30.103 
12:50	66.8	66.8	66.8	58	51.5	2	5	90	0.00	30.101 
12:55	67.3	67.3	67.3	55	50.6	2	5	90	0.00	30.098 
13:00	67.3	67.3	67.3	57	51.5	3	7	90	0.00	30.097 
13:05	67.6	67.6	67.6	56	51.3	2	7	90	0.00	30.099 
13:10	67.8	67.8	67.8	56	51.5	3	7	90	0.00	30.095 
13:15	68.1	68.1	68.1	55	51.3	3	7	90	0.00	30.092 
13:20	68.4	68.4	68.4	53	50.6	2	5	68	0.00	30.091 
13:25	68.6	68.6	68.6	54	51.3	2	6	112	0.00	30.090 
13:30	68.8	68.8	68.8	54	51.5	4	7	112	0.00	30.089 
13:35	69.3	69.3	69.3	55	52.4	2	7	112	0.00	30.088 
13:40	69.8	69.8	69.8	54	52.4	2	4	112	0.00	30.088 
13:45	69.9	69.9	69.9	54	52.5	2	6	112	0.00	30.088 
13:50	70.3	70.3	70.3	53	52.3	2	6	90	0.00	30.087 
13:55	71.1	71.1	71.1	51	52.0	2	6	90	0.00	30.082 
14:00	70.9	70.9	70.9	52	52.4	3	6	112	0.00	30.083 
14:05	70.8	70.8	70.8	53	52.8	3	7	90	0.00	30.084 
14:10	71.1	71.1	71.1	57	55.1	2	7	90	0.00	30.083 
14:15	71.6	71.6	71.6	52	53.0	3	6	90	0.00	30.080 
14:20	71.8	71.8	71.8	52	53.2	2	5	112	0.00	30.076 
14:25	72.3	72.3	72.3	52	53.7	2	7	112	0.00	30.080 
14:30	72.5	72.5	72.5	50	52.8	2	6	90	0.00	30.080 
14:35	72.7	72.7	72.7	51	53.5	2	6	90	0.00	30.077 
14:40	72.7	72.7	72.7	50	53.0	2	5	90	0.00	30.074 
14:45	72.8	72.8	72.8	53	54.7	2	6	90	0.00	30.071 
14:50	72.8	72.8	72.8	50	53.1	2	6	90	0.00	30.072 
14:55	72.8	72.8	72.8	52	54.1	2	6	112	0.00	30.071 
15:00	73.0	73.0	73.0	50	53.2	2	7	135	0.00	30.070 
15:05	72.8	72.8	72.8	51	53.6	2	5	90	0.00	30.069 
15:10	73.2	73.2	73.2	53	55.0	2	5	112	0.00	30.068 
15:15	73.3	73.3	73.3	50	53.5	2	6	112	0.00	30.068 
15:20	73.5	73.5	73.5	52	54.8	2	5	90	0.00	30.066 
15:25	73.9	73.9	73.9	51	54.6	3	9	90	0.00	30.068 
15:30	73.9	73.9	73.9	51	54.6	3	9	90	0.00	30.065 
15:35	73.9	73.9	73.9	50	54.1	2	7	112	0.00	30.066 
15:40	74.0	74.0	74.0	49	53.6	2	5	90	0.00	30.066 
15:45	74.4	74.4	74.4	52	55.6	2	5	90	0.00	30.066 
15:50	74.7	74.7	74.7	50	54.8	1	4	112	0.00	30.064 
15:55	74.9	74.9	74.9	50	55.0	2	5	90	0.00	30.066 
16:00	74.9	74.9	74.9	47	53.3	2	6	135	0.00	30.064 
16:05	75.1	75.1	77.7	48	54.1	2	4	90	0.00	30.060 
16:10	74.7	74.7	74.7	50	54.8	4	7	90	0.00	30.062 
16:15	74.7	74.7	74.7	48	53.7	1	3	112	0.00	30.060 
16:20	74.7	74.7	74.7	49	54.3	2	6	112	0.00	30.059 
16:25	75.1	75.1	77.7	49	54.6	2	5	112	0.00	30.057 
16:30	75.3	75.3	77.7	50	55.4	2	6	68	0.00	30.059 
16:35	75.1	75.1	77.7	48	54.1	2	5	90	0.00	30.059 
16:40	75.3	75.3	77.7	51	55.9	2	5	90	0.00	30.060 
16:45	75.3	75.3	77.7	49	54.8	3	6	90	0.00	30.061 
16:50	74.9	74.9	74.9	49	54.4	2	5	90	0.00	30.059 
16:55	75.1	75.1	77.7	49	54.6	1	3	90	0.00	30.061 
17:00	75.1	75.1	77.7	49	54.6	2	4	90	0.00	30.061 
17:05	75.4	75.4	77.8	48	54.3	2	5	112	0.00	30.061 
17:10	75.3	75.3	77.7	49	54.8	2	5	90	0.00	30.058 
17:15	75.1	75.1	77.7	50	55.2	2	5	90	0.00	30.056 
17:20	75.1	75.1	77.7	50	55.2	2	5	90	0.00	30.056 
17:25	75.1	75.1	77.7	51	55.7	2	4	112	0.00	30.054 
17:30	75.1	75.1	77.7	51	55.7	2	4	112	0.00	30.052 
17:35	75.1	75.1	77.7	50	55.2	3	6	90	0.00	30.052 
17:40	74.9	74.9	74.9	49	54.4	2	6	112	0.00	30.052 
17:45	74.9	74.9	74.9	50	55.0	3	6	90	0.00	30.051 
17:50	74.7	74.7	74.7	50	54.8	3	9	90	0.00	30.051 
17:55	74.6	74.6	74.6	51	55.3	1	3	90	0.00	30.051 
18:00	74.6	74.6	74.6	50	54.7	2	6	112	0.00	30.051 
18:05	74.6	74.6	74.6	50	54.7	2	4	90	0.00	30.051 
18:10	74.6	74.6	74.6	50	54.7	2	5	90	0.00	30.052 
18:15	74.4	74.4	74.4	50	54.5	3	6	90	0.00	30.052 
18:20	74.2	74.2	74.2	50	54.3	3	6	90	0.00	30.052 
18:25	74.0	74.0	74.0	50	54.2	3	6	112	0.00	30.052 
18:30	74.0	74.0	74.0	50	54.2	3	6	90	0.00	30.052 
18:35	73.9	73.9	73.9	51	54.6	2	5	90	0.00	30.053 
18:40	73.7	73.7	73.7	51	54.4	2	5	90	0.00	30.053 
18:45	73.3	73.3	73.3	51	54.1	2	5	90	0.00	30.052 
18:50	73.2	73.2	73.2	52	54.5	2	5	90	0.00	30.053 
18:55	72.8	72.8	72.8	53	54.7	1	3	112	0.00	30.054 
19:00	72.5	72.5	72.5	52	53.9	2	4	90	0.00	30.052 
19:05	72.3	72.3	72.3	53	54.2	1	4	112	0.00	30.054 
19:10	72.1	72.1	72.1	53	54.0	1	2	112	0.00	30.054 
19:15	72.0	72.0	72.0	54	54.4	1	3	112	0.00	30.054 
19:20	71.6	71.6	71.6	54	54.1	2	5	90	0.00	30.053 
19:25	71.5	71.5	71.5	54	54.0	2	3	112	0.00	30.054 
19:30	71.1	71.1	71.1	54	53.6	1	3	90	0.00	30.055 
19:35	70.9	70.9	70.9	54	53.4	2	5	90	0.00	30.056 
19:40	70.8	70.8	70.8	54	53.3	2	4	90	0.00	30.056 
19:45	70.6	70.6	70.6	54	53.1	1	3	90	0.00	30.057 
19:50	70.3	70.3	70.3	55	53.4	1	2	90	0.00	30.059 
19:55	69.9	69.9	69.9	55	53.0	1	2	90	0.00	30.059 
20:00	69.8	69.8	69.8	55	52.9	2	4	90	0.00	30.058 
20:05	69.6	69.6	69.6	56	53.2	2	4	90	0.00	30.056 
20:10	69.3	69.3	69.3	56	52.9	2	4	90	0.00	30.058 
20:15	69.1	69.1	69.1	56	52.7	1	3	90	0.00	30.057 
20:20	68.8	68.8	68.8	57	52.9	2	4	112	0.00	30.056 
20:25	68.6	68.6	68.6	57	52.7	2	5	90	0.00	30.057 
20:30	68.3	68.3	68.3	58	52.9	1	3	90	0.00	30.058 
20:35	68.1	68.1	68.1	58	52.8	1	3	112	0.00	30.060 
20:40	67.6	67.6	67.6	59	52.8	1	3	112	0.00	30.063 
20:45	67.3	67.3	67.3	60	52.9	1	3	112	0.00	30.068 
20:50	66.8	66.8	66.8	61	52.9	1	3	112	0.00	30.071 
20:55	66.3	66.3	66.3	61	52.4	1	3	112	0.00	30.072 
21:00	65.8	65.8	65.8	62	52.4	1	3	90	0.00	30.074 
21:05	65.5	65.5	65.5	62	52.1	1	4	90	0.00	30.074 
21:10	65.2	65.2	65.2	62	51.8	2	5	112	0.00	30.077 
21:15	64.8	64.8	64.8	62	51.5	2	5	112	0.00	30.082 
21:20	64.7	64.7	64.7	63	51.8	2	6	90	0.00	30.086 
21:25	64.3	64.3	64.3	63	51.4	2	4	112	0.00	30.088 
21:30	64.2	64.2	64.2	64	51.8	1	4	90	0.00	30.087 
21:35	63.9	63.9	63.9	64	51.5	1	4	112	0.00	30.089 
21:40	63.5	63.5	63.5	65	51.5	1	3	68	0.00	30.089 
21:45	63.4	63.4	63.4	65	51.4	2	5	112	0.00	30.090 
21:50	63.2	63.2	63.2	65	51.2	1	3	90	0.00	30.091 
21:55	63.1	63.1	63.1	65	51.1	1	3	68	0.00	30.091 
22:00	62.9	62.9	62.9	66	51.4	1	3	90	0.00	30.091 
22:05	62.6	62.6	62.6	65	50.7	1	3	90	0.00	30.089 
22:10	62.4	62.4	62.4	66	50.9	2	4	90	0.00	30.089 
22:15	62.3	62.3	62.3	66	50.8	1	3	90	0.00	30.090 
22:20	62.1	62.1	62.1	66	50.6	2	4	90	0.00	30.090 
22:25	62.0	62.0	62.0	67	50.9	2	3	90	0.00	30.090 
22:30	61.8	61.8	61.8	67	50.7	1	4	90	0.00	30.091 
22:35	61.6	61.6	61.6	68	50.9	2	3	90	0.00	30.091 
22:40	61.5	61.5	61.5	68	50.8	2	3	90	0.00	30.091 
22:45	61.5	61.5	61.5	68	50.8	2	4	90	0.00	30.091 
22:50	61.3	61.3	61.3	68	50.6	2	3	90	0.00	30.093 
22:55	61.2	61.2	61.2	68	50.5	2	4	90	0.00	30.095 
23:00	61.0	61.0	61.0	69	50.8	2	4	90	0.00	30.095 
23:05	60.9	60.9	60.9	69	50.7	2	5	90	0.00	30.091 
23:10	60.7	60.7	60.7	69	50.5	2	4	90	0.00	30.089 
23:15	60.5	60.5	60.5	70	50.7	2	3	90	0.00	30.090 
23:20	60.4	60.4	60.4	70	50.6	1	3	90	0.00	30.094 
23:25	60.1	60.1	60.1	71	50.7	1	2	90	0.00	30.096 
23:30	59.9	59.9	59.9	72	50.8	1	4	90	0.00	30.092 
23:35	59.6	59.6	59.6	72	50.6	1	3	90	0.00	30.094 
23:40	59.5	59.5	59.5	73	50.8	1	2	90	0.00	30.095 
23:45	59.2	59.2	59.2	73	50.5	1	3	90	0.00	30.095 
23:50	59.0	59.0	59.0	73	50.4	1	4	90	0.00	30.095 
23:55	58.9	58.9	58.9	74	50.6	1	4	90	0.00	30.095 

CoCoRaHS
IN-AL-39
A2 Web Hosting
Creative Commons License
GoDaddy
Look for:

loaded 2017-10-16 18:26:29 • last modified 2010-11-18 10:43:29
Privacy PolicyDisclaimer
• wx.awcolley.com is powered by PmWiki v.2002016 •
• all content (unless otherwise noted) © 2017 A W Colley